createdAt,value
2023-03-26T00:01:08.570Z,100125.44
2023-03-26T00:03:34.930Z,100123.06
2023-03-26T00:06:01.474Z,100124.88
2023-03-26T00:08:27.905Z,100124.94
2023-03-26T00:10:54.271Z,100123.84
2023-03-26T00:13:20.713Z,100129.13
2023-03-26T00:15:47.291Z,100123.84
2023-03-26T00:18:14.777Z,100127.47
2023-03-26T00:20:41.473Z,100122.16
2023-03-26T00:23:08.868Z,100130.91
2023-03-26T00:25:35.271Z,100114.16
2023-03-26T00:28:01.661Z,100107.97
2023-03-26T00:30:28.289Z,100115.94
2023-03-26T00:32:54.738Z,100119.34
2023-03-26T00:35:22.348Z,100115.81
2023-03-26T00:37:51.654Z,100116.78
2023-03-26T00:40:18.225Z,100113.16
2023-03-26T00:42:44.825Z,100107.06
2023-03-26T00:45:11.292Z,100108.81
2023-03-26T00:47:37.901Z,100110.59
2023-03-26T00:50:04.321Z,100109.72
2023-03-26T00:52:32.050Z,100099.97
2023-03-26T00:54:58.811Z,100101.72
2023-03-26T00:57:35.557Z,100104.38
2023-03-26T01:00:16.037Z,100103.50
2023-03-26T01:02:45.087Z,100097.34
2023-03-26T01:05:12.099Z,100095.56
2023-03-26T01:07:38.672Z,100091.06
2023-03-26T01:10:05.172Z,100082.41
2023-03-26T01:12:34.300Z,100081.44
2023-03-26T01:15:00.795Z,100087.53
2023-03-26T01:17:33.866Z,100077.00
2023-03-26T01:20:12.349Z,100076.13
2023-03-26T01:22:38.802Z,100082.25
2023-03-26T01:25:05.462Z,100078.66
2023-03-26T01:27:34.691Z,100076.97
2023-03-26T01:30:01.343Z,100073.38
2023-03-26T01:32:27.853Z,100069.16
2023-03-26T01:34:54.300Z,100059.38
2023-03-26T01:37:20.920Z,100066.31
2023-03-26T01:39:49.139Z,100052.25
2023-03-26T01:42:16.059Z,100046.91
2023-03-26T01:44:42.999Z,100052.25
2023-03-26T01:47:09.377Z,100046.06
2023-03-26T01:49:36.392Z,100042.47
2023-03-26T01:52:02.768Z,100038.91
2023-03-26T01:54:29.187Z,100036.25
2023-03-26T01:56:57.017Z,100031.81
2023-03-26T01:59:23.466Z,100030.06
2023-03-26T02:01:49.895Z,100029.22
2023-03-26T02:04:16.284Z,100024.91
2023-03-26T02:06:42.688Z,100016.94
2023-03-26T02:09:09.165Z,100017.81
2023-03-26T02:11:36.161Z,100013.50
2023-03-26T02:14:02.690Z,100013.50
2023-03-26T02:16:29.111Z,100012.63
2023-03-26T02:18:56.015Z,100005.56
2023-03-26T02:21:22.638Z,100003.84
2023-03-26T02:23:50.724Z,100000.31
2023-03-26T02:26:17.618Z,99996.78
2023-03-26T02:29:06.906Z,99998.53
2023-03-26T02:31:35.897Z,99991.50
2023-03-26T02:34:02.350Z,99997.66
2023-03-26T02:36:31.931Z,99995.91
2023-03-26T02:39:01.416Z,99986.22
2023-03-26T02:41:31.311Z,99990.59
2023-03-26T02:44:01.631Z,99987.06
2023-03-26T02:46:50.712Z,99972.00
2023-03-26T02:49:37.057Z,99971.16
2023-03-26T02:52:06.541Z,99964.91
2023-03-26T02:54:35.048Z,99970.25
2023-03-26T02:57:21.701Z,99956.06
2023-03-26T02:59:52.741Z,99952.53
2023-03-26T03:02:39.818Z,99943.75
2023-03-26T03:05:26.719Z,99939.34
2023-03-26T03:08:11.183Z,99933.13
2023-03-26T03:10:43.815Z,99938.44
2023-03-26T03:13:29.780Z,99926.06
2023-03-26T03:15:56.433Z,99925.19
2023-03-26T03:18:23.203Z,99926.00
2023-03-26T03:20:49.932Z,99921.59
2023-03-26T03:23:16.361Z,99912.81
2023-03-26T03:25:42.761Z,99920.78
2023-03-26T03:28:09.211Z,99908.41
2023-03-26T03:30:35.678Z,99900.41
2023-03-26T03:33:13.078Z,99903.09
2023-03-26T03:35:40.101Z,99908.38
2023-03-26T03:38:06.648Z,99906.59
2023-03-26T03:40:42.587Z,99898.66
2023-03-26T03:43:09.013Z,99902.19
2023-03-26T03:45:43.524Z,99896.97
2023-03-26T03:48:18.887Z,99897.84
2023-03-26T03:50:46.918Z,99886.38
2023-03-26T03:53:26.297Z,99882.75
2023-03-26T03:55:54.782Z,99888.06
2023-03-26T03:58:25.181Z,99883.66
2023-03-26T04:01:00.764Z,99885.44
2023-03-26T04:03:46.518Z,99878.38
2023-03-26T04:06:18.859Z,99874.03
2023-03-26T04:08:49.975Z,99871.38
2023-03-26T04:11:16.637Z,99866.97
2023-03-26T04:14:12.017Z,99862.56
2023-03-26T04:16:49.344Z,99859.88
2023-03-26T04:19:15.799Z,99852.84
2023-03-26T04:21:42.855Z,99848.44
2023-03-26T04:24:09.665Z,99844.91
2023-03-26T04:27:02.067Z,99845.78
2023-03-26T04:29:34.598Z,99833.44
2023-03-26T04:32:06.452Z,99830.75
2023-03-26T04:34:33.054Z,99830.78
2023-03-26T04:37:09.578Z,99828.13
2023-03-26T04:39:44.904Z,99832.50
2023-03-26T04:42:37.666Z,99826.34
2023-03-26T04:45:14.748Z,99817.53
2023-03-26T04:47:46.600Z,99820.19
2023-03-26T04:50:13.482Z,99811.34
2023-03-26T04:52:42.540Z,99811.34
2023-03-26T04:55:42.739Z,99796.38
2023-03-26T04:58:17.596Z,99791.91
2023-03-26T05:00:52.760Z,99793.72
2023-03-26T05:03:20.934Z,99784.03
2023-03-26T05:05:49.673Z,99781.34
2023-03-26T05:08:16.290Z,99770.72
2023-03-26T05:10:42.718Z,99775.19
2023-03-26T05:13:13.910Z,99777.84
2023-03-26T05:15:46.113Z,99776.97
2023-03-26T05:18:25.868Z,99768.13
2023-03-26T05:20:53.410Z,99770.78
2023-03-26T05:23:20.482Z,99770.78
2023-03-26T05:25:58.216Z,99762.81
2023-03-26T05:28:26.676Z,99758.41
2023-03-26T05:30:57.219Z,99760.19
2023-03-26T05:33:25.924Z,99746.03
2023-03-26T05:36:00.966Z,99743.41
2023-03-26T05:38:28.927Z,99749.59
2023-03-26T05:40:56.328Z,99754.00
2023-03-26T05:43:22.832Z,99747.84
2023-03-26T05:46:00.356Z,99747.84
2023-03-26T05:48:30.241Z,99740.75
2023-03-26T05:50:57.240Z,99731.09
2023-03-26T05:53:26.240Z,99733.72
2023-03-26T05:56:10.890Z,99726.66
2023-03-26T05:59:12.461Z,99718.66
2023-03-26T06:02:17.237Z,99719.63
2023-03-26T06:05:15.977Z,99709.88
2023-03-26T06:08:11.425Z,99709.91
2023-03-26T06:10:39.350Z,99701.94
2023-03-26T06:13:06.077Z,99698.44
2023-03-26T06:15:35.536Z,99694.00
2023-03-26T06:18:22.950Z,99698.44
2023-03-26T06:20:59.418Z,99697.56
2023-03-26T06:23:39.849Z,99684.34
2023-03-26T06:26:29.424Z,99687.84
2023-03-26T06:29:10.412Z,99681.66
2023-03-26T06:31:55.402Z,99682.56
2023-03-26T06:34:25.893Z,99679.84
2023-03-26T06:36:54.212Z,99677.25
2023-03-26T06:39:21.657Z,99675.41
2023-03-26T06:42:03.937Z,99673.69
2023-03-26T06:44:53.326Z,99664.03
2023-03-26T06:47:42.895Z,99660.47
2023-03-26T06:50:28.035Z,99659.56
2023-03-26T06:53:17.292Z,99660.47
2023-03-26T06:56:12.809Z,99654.28
2023-03-26T06:59:08.438Z,99650.78
2023-03-26T07:01:53.558Z,99652.53
2023-03-26T07:04:38.334Z,99652.38
2023-03-26T07:07:24.800Z,99648.94
2023-03-26T07:10:17.126Z,99632.13
2023-03-26T07:13:01.018Z,99630.44
2023-03-26T07:15:33.160Z,99632.22
2023-03-26T07:18:08.737Z,99631.28
2023-03-26T07:20:36.751Z,99619.91
2023-03-26T07:23:03.269Z,99619.75
2023-03-26T07:25:44.795Z,99618.09
2023-03-26T07:29:05.012Z,99615.47
2023-03-26T07:31:38.102Z,99610.97
2023-03-26T07:34:22.677Z,99601.88
2023-03-26T07:37:12.535Z,99601.13
2023-03-26T07:40:07.994Z,99611.00
2023-03-26T07:42:53.052Z,99597.75
2023-03-26T07:45:45.583Z,99597.81
2023-03-26T07:48:30.760Z,99592.44
2023-03-26T07:51:07.003Z,99596.81
2023-03-26T07:53:49.264Z,99601.19
2023-03-26T07:56:58.052Z,99588.88
2023-03-26T07:59:31.118Z,99595.94
2023-03-26T08:02:22.371Z,99590.63
2023-03-26T08:04:58.591Z,99593.16
2023-03-26T08:07:45.209Z,99586.19
2023-03-26T08:10:20.621Z,99589.31
2023-03-26T08:13:13.134Z,99587.66
2023-03-26T08:15:39.684Z,99584.31
2023-03-26T08:18:06.403Z,99578.84
2023-03-26T08:20:34.230Z,99584.28
2023-03-26T08:23:02.150Z,99576.34
2023-03-26T08:25:33.024Z,99573.41
2023-03-26T08:27:59.470Z,99580.72
2023-03-26T08:30:26.014Z,99578.19
2023-03-26T08:32:52.554Z,99579.97
2023-03-26T08:35:19.181Z,99579.72
2023-03-26T08:37:46.456Z,99579.66
2023-03-26T08:40:13.607Z,99579.94
2023-03-26T08:42:40.183Z,99576.38
2023-03-26T08:45:06.556Z,99582.56
2023-03-26T08:47:32.900Z,99575.69
2023-03-26T08:49:59.314Z,99572.88
2023-03-26T08:52:25.724Z,99569.38
2023-03-26T08:54:52.178Z,99572.88
2023-03-26T08:57:18.924Z,99571.97
2023-03-26T08:59:45.294Z,99571.06
2023-03-26T09:02:11.988Z,99565.78
2023-03-26T09:04:39.494Z,99566.69
2023-03-26T09:07:06.945Z,99567.63
2023-03-26T09:09:33.915Z,99562.34
2023-03-26T09:12:00.282Z,99564.94
2023-03-26T09:14:28.141Z,99571.22
2023-03-26T09:16:54.544Z,99564.09
2023-03-26T09:19:21.401Z,99562.41
2023-03-26T09:21:47.857Z,99556.22
2023-03-26T09:24:14.251Z,99556.09
2023-03-26T09:26:40.600Z,99552.50
2023-03-26T09:29:07.027Z,99557.13
2023-03-26T09:31:33.593Z,99545.59
2023-03-26T09:34:00.417Z,99551.59
2023-03-26T09:36:27.242Z,99549.22
2023-03-26T09:38:54.640Z,99543.81
2023-03-26T09:41:23.738Z,99549.09
2023-03-26T09:43:50.446Z,99547.31
2023-03-26T09:46:16.875Z,99537.66
2023-03-26T09:48:43.321Z,99541.19
2023-03-26T09:51:09.669Z,99550.19
2023-03-26T09:53:37.306Z,99544.59
2023-03-26T09:56:04.722Z,99537.47
2023-03-26T09:58:31.221Z,99538.47
2023-03-26T10:01:00.810Z,99544.63
2023-03-26T10:03:28.123Z,99540.22
2023-03-26T10:05:54.845Z,99540.97
2023-03-26T10:08:21.790Z,99550.94
2023-03-26T10:10:48.172Z,99541.06
2023-03-26T10:13:15.243Z,99540.97
2023-03-26T10:15:41.632Z,99541.94
2023-03-26T10:18:27.678Z,99542.03
2023-03-26T10:20:54.642Z,99533.88
2023-03-26T10:23:22.261Z,99543.56
2023-03-26T10:25:48.707Z,99530.50
2023-03-26T10:28:16.390Z,99535.50
2023-03-26T10:30:44.739Z,99531.47
2023-03-26T10:33:11.381Z,99529.00
2023-03-26T10:35:38.195Z,99528.03
2023-03-26T10:38:04.791Z,99536.56
2023-03-26T10:40:31.569Z,99533.13
2023-03-26T10:42:57.987Z,99539.38
2023-03-26T10:45:24.364Z,99535.00
2023-03-26T10:47:50.827Z,99538.44
2023-03-26T10:50:22.915Z,99523.56
2023-03-26T10:52:50.393Z,99526.91
2023-03-26T10:55:16.950Z,99530.13
2023-03-26T10:57:43.290Z,99532.25
2023-03-26T11:00:09.708Z,99528.53
2023-03-26T11:02:36.617Z,99534.84
2023-03-26T11:05:03.079Z,99531.13
2023-03-26T11:07:29.561Z,99529.31
2023-03-26T11:09:55.917Z,99527.53
2023-03-26T11:12:26.084Z,99523.81
2023-03-26T11:14:54.997Z,99526.00
2023-03-26T11:17:40.825Z,99522.25
2023-03-26T11:20:08.239Z,99517.03
2023-03-26T11:22:34.680Z,99522.13
2023-03-26T11:25:01.621Z,99518.44
2023-03-26T11:27:28.864Z,99519.28
2023-03-26T11:29:55.307Z,99523.06
2023-03-26T11:32:22.250Z,99517.03
2023-03-26T11:34:48.836Z,99516.91
2023-03-26T11:37:15.283Z,99507.34
2023-03-26T11:39:41.670Z,99510.06
2023-03-26T11:42:08.094Z,99518.75
2023-03-26T11:44:43.470Z,99516.34
2023-03-26T11:47:10.507Z,99507.19
2023-03-26T11:49:39.355Z,99511.13
2023-03-26T11:52:07.540Z,99507.28
2023-03-26T11:54:33.907Z,99510.16
2023-03-26T11:57:05.595Z,99508.28
2023-03-26T11:59:37.029Z,99507.41
2023-03-26T12:02:05.811Z,99503.97
2023-03-26T12:04:33.604Z,99508.50
2023-03-26T12:07:00.054Z,99507.84
2023-03-26T12:09:26.962Z,99506.94
2023-03-26T12:11:53.687Z,99506.97
2023-03-26T12:14:20.197Z,99508.59
2023-03-26T12:16:46.912Z,99511.38
2023-03-26T12:19:13.334Z,99505.28
2023-03-26T12:21:39.734Z,99506.84
2023-03-26T12:24:07.135Z,99507.94
2023-03-26T12:26:37.065Z,99510.63
2023-03-26T12:29:03.564Z,99509.66
2023-03-26T12:31:30.354Z,99498.09
2023-03-26T12:33:58.623Z,99504.28
2023-03-26T12:36:26.690Z,99506.00
2023-03-26T12:39:42.786Z,99508.41
2023-03-26T12:44:47.834Z,99506.03
2023-03-26T12:44:55.186Z,99501.25
2023-03-26T12:48:00.156Z,99504.22
2023-03-26T12:49:59.131Z,99508.72
2023-03-26T12:52:25.607Z,99506.09
2023-03-26T12:54:52.745Z,99503.44
2023-03-26T12:57:20.287Z,99499.88
2023-03-26T12:59:46.714Z,99503.13
2023-03-26T13:02:13.176Z,99506.78
2023-03-26T13:04:39.652Z,99503.47
2023-03-26T13:07:06.400Z,99501.41
2023-03-26T13:09:32.917Z,99499.44
2023-03-26T13:11:59.253Z,99502.31
2023-03-26T13:14:25.610Z,99505.97
2023-03-26T13:16:51.954Z,99498.84
2023-03-26T13:19:19.292Z,99511.28
2023-03-26T13:21:46.695Z,99510.53
2023-03-26T13:24:13.031Z,99506.94
2023-03-26T13:26:39.415Z,99512.09
2023-03-26T13:29:06.012Z,99510.28
2023-03-26T13:31:32.480Z,99520.91
2023-03-26T13:33:58.913Z,99511.25
2023-03-26T13:36:25.588Z,99511.13
2023-03-26T13:38:58.625Z,99512.09
2023-03-26T13:41:26.012Z,99505.81
2023-03-26T13:43:52.430Z,99512.91
2023-03-26T13:46:19.812Z,99505.00
2023-03-26T13:48:46.944Z,99509.44
2023-03-26T13:51:13.289Z,99515.50
2023-03-26T13:53:40.134Z,99513.84
2023-03-26T13:56:06.514Z,99511.81
2023-03-26T13:58:34.451Z,99519.66
2023-03-26T14:01:01.927Z,99518.56
2023-03-26T14:03:29.018Z,99527.84
2023-03-26T14:05:55.455Z,99525.13
2023-03-26T14:08:21.807Z,99524.22
2023-03-26T14:10:48.175Z,99526.97
2023-03-26T14:13:14.597Z,99525.31
2023-03-26T14:15:40.951Z,99547.38
2023-03-26T14:18:07.490Z,99537.78
2023-03-26T14:20:33.968Z,99536.09
2023-03-26T14:23:00.544Z,99537.84
2023-03-26T14:25:27.069Z,99544.06
2023-03-26T14:27:53.462Z,99537.81
2023-03-26T14:30:20.086Z,99545.66
2023-03-26T14:32:46.533Z,99547.44
2023-03-26T14:35:12.947Z,99554.69
2023-03-26T14:37:39.353Z,99560.78
2023-03-26T14:40:12.870Z,99551.91
2023-03-26T14:42:39.404Z,99563.47
2023-03-26T14:45:05.833Z,99573.22
2023-03-26T14:47:32.296Z,99575.91
2023-03-26T14:49:58.742Z,99564.44
2023-03-26T14:52:27.274Z,99569.72
2023-03-26T14:54:53.810Z,99579.44
2023-03-26T14:57:20.374Z,99569.75
2023-03-26T14:59:47.248Z,99582.06
2023-03-26T15:02:13.832Z,99585.59
2023-03-26T15:04:40.377Z,99588.22
2023-03-26T15:07:06.825Z,99587.31
2023-03-26T15:09:33.254Z,99590.00
2023-03-26T15:12:13.116Z,99600.59
2023-03-26T15:14:39.833Z,99603.16
2023-03-26T15:17:08.205Z,99604.03
2023-03-26T15:19:34.565Z,99606.72
2023-03-26T15:22:00.987Z,99608.47
2023-03-26T15:24:27.574Z,99613.78
2023-03-26T15:26:53.951Z,99615.53
2023-03-26T15:29:21.519Z,99617.31
2023-03-26T15:31:47.963Z,99621.72
2023-03-26T15:34:14.298Z,99619.94
2023-03-26T15:36:41.392Z,99623.50
2023-03-26T15:39:07.920Z,99626.16
2023-03-26T15:41:34.599Z,99637.56
2023-03-26T15:44:22.605Z,99641.97
2023-03-26T15:46:47.831Z,99647.19
2023-03-26T15:49:16.475Z,99651.59
2023-03-26T15:51:46.897Z,99649.03
2023-03-26T15:54:14.215Z,99659.53
2023-03-26T15:56:40.636Z,99662.16
2023-03-26T15:59:07.540Z,99663.91
2023-03-26T16:01:34.120Z,99663.13
2023-03-26T16:04:00.564Z,99663.13
2023-03-26T16:06:28.323Z,99679.88
2023-03-26T16:08:54.793Z,99675.47
2023-03-26T16:11:21.223Z,99677.13
2023-03-26T16:13:47.618Z,99698.28
2023-03-26T16:16:14.463Z,99696.47
2023-03-26T16:18:41.157Z,99696.56
2023-03-26T16:21:08.933Z,99709.59
2023-03-26T16:23:55.253Z,99714.88
2023-03-26T16:26:21.946Z,99718.41
2023-03-26T16:28:48.937Z,99724.56
2023-03-26T16:31:35.709Z,99743.09
2023-03-26T16:34:01.631Z,99745.50
2023-03-26T16:36:30.943Z,99743.13
2023-03-26T16:38:57.354Z,99753.59
2023-03-26T16:41:23.733Z,99760.66
2023-03-26T16:43:50.305Z,99761.47
2023-03-26T16:46:16.718Z,99767.72
2023-03-26T16:48:43.203Z,99764.97
2023-03-26T16:51:10.278Z,99769.69
2023-03-26T16:53:38.680Z,99784.72
2023-03-26T16:56:05.476Z,99784.59
2023-03-26T16:58:32.082Z,99796.53
2023-03-26T17:00:59.835Z,99796.69
2023-03-26T17:03:26.486Z,99811.66
2023-03-26T17:05:53.674Z,99802.13
2023-03-26T17:08:35.501Z,99816.13
2023-03-26T17:11:03.444Z,99827.47
2023-03-26T17:13:29.767Z,99831.00
2023-03-26T17:15:56.117Z,99826.63
2023-03-26T17:18:22.703Z,99834.66
2023-03-26T17:20:49.121Z,99837.22
2023-03-26T17:23:15.563Z,99858.28
2023-03-26T17:25:42.159Z,99851.13
2023-03-26T17:28:10.621Z,99848.69
2023-03-26T17:30:37.240Z,99865.56
2023-03-26T17:33:03.769Z,99884.09
2023-03-26T17:35:30.225Z,99881.13
2023-03-26T17:37:56.721Z,99885.75
2023-03-26T17:40:23.084Z,99900.59
2023-03-26T17:42:49.415Z,99891.78
2023-03-26T17:45:17.126Z,99886.09
2023-03-26T17:47:43.554Z,99902.44
2023-03-26T17:50:09.951Z,99900.81
2023-03-26T17:52:36.332Z,99922.56
2023-03-26T17:55:02.949Z,99936.75
2023-03-26T17:57:29.297Z,99939.13
2023-03-26T17:59:55.725Z,99930.38
2023-03-26T18:02:22.140Z,99927.72
2023-03-26T18:04:48.698Z,99944.59
2023-03-26T18:07:16.624Z,99946.91
2023-03-26T18:09:43.166Z,99957.78
2023-03-26T18:12:09.585Z,99966.22
2023-03-26T18:14:36.046Z,99983.16
2023-03-26T18:17:02.559Z,99972.88
2023-03-26T18:19:28.952Z,99987.72
2023-03-26T18:21:56.701Z,99976.97
2023-03-26T18:24:24.454Z,99987.97
2023-03-26T18:26:50.836Z,99999.53
2023-03-26T18:29:18.291Z,99994.31
2023-03-26T18:31:44.855Z,100003.13
2023-03-26T18:34:11.344Z,100008.97
2023-03-26T18:36:38.707Z,100032.59
2023-03-26T18:39:05.832Z,100010.41
2023-03-26T18:41:33.063Z,100040.09
2023-03-26T18:43:59.425Z,100028.97
2023-03-26T18:46:25.841Z,100044.38
2023-03-26T18:48:53.304Z,100054.00
2023-03-26T18:51:23.019Z,100036.63
2023-03-26T18:53:49.614Z,100060.25
2023-03-26T18:56:16.496Z,100073.63
2023-03-26T18:58:44.201Z,100074.63
2023-03-26T19:01:20.053Z,100096.19
2023-03-26T19:03:51.680Z,100079.16
2023-03-26T19:06:20.823Z,100095.72
2023-03-26T19:08:47.211Z,100085.88
2023-03-26T19:11:13.592Z,100086.25
2023-03-26T19:13:43.083Z,100105.63
2023-03-26T19:16:09.440Z,100094.69
2023-03-26T19:18:36.558Z,100104.44
2023-03-26T19:21:03.406Z,100129.91
2023-03-26T19:23:31.649Z,100115.97
2023-03-26T19:25:59.727Z,100114.94
2023-03-26T19:28:26.214Z,100120.06
2023-03-26T19:30:52.783Z,100144.25
2023-03-26T19:33:19.356Z,100137.31
2023-03-26T19:35:46.020Z,100132.44
2023-03-26T19:38:12.425Z,100137.41
2023-03-26T19:40:38.906Z,100172.03
2023-03-26T19:43:05.576Z,100154.84
2023-03-26T19:45:32.231Z,100155.03
2023-03-26T19:48:12.171Z,100153.22
2023-03-26T19:50:42.075Z,100158.66
2023-03-26T19:53:16.173Z,100171.06
2023-03-26T19:55:43.876Z,100168.22
2023-03-26T19:58:10.317Z,100173.81
2023-03-26T20:00:36.694Z,100177.81
2023-03-26T20:03:03.413Z,100199.16
2023-03-26T20:05:30.354Z,100206.59
2023-03-26T20:07:57.128Z,100195.78
2023-03-26T20:10:23.632Z,100224.41
2023-03-26T20:12:49.964Z,100244.97
2023-03-26T20:15:19.445Z,100223.06
2023-03-26T20:17:46.962Z,100231.28
2023-03-26T20:20:13.767Z,100232.34
2023-03-26T20:22:40.499Z,100231.88
2023-03-26T20:25:07.875Z,100260.56
2023-03-26T20:27:34.244Z,100245.38
2023-03-26T20:30:01.406Z,100264.72
2023-03-26T20:32:27.968Z,100264.19
2023-03-26T20:34:55.011Z,100255.75
2023-03-26T20:37:21.555Z,100266.81
2023-03-26T20:39:47.954Z,100278.59
2023-03-26T20:42:16.017Z,100295.41
2023-03-26T20:44:42.664Z,100267.34
2023-03-26T20:47:09.273Z,100279.81
2023-03-26T20:49:35.723Z,100281.78
2023-03-26T20:52:02.683Z,100284.78
2023-03-26T20:54:30.370Z,100301.97
2023-03-26T20:56:58.120Z,100299.44
2023-03-26T20:59:26.410Z,100318.25
2023-03-26T21:01:54.259Z,100328.22
2023-03-26T21:04:20.790Z,100349.34
2023-03-26T21:06:47.196Z,100331.13
2023-03-26T21:09:15.056Z,100351.91
2023-03-26T21:11:41.725Z,100338.41
2023-03-26T21:14:08.316Z,100345.53
2023-03-26T21:16:34.723Z,100352.00
2023-03-26T21:19:01.290Z,100368.13
2023-03-26T21:21:28.142Z,100358.91
2023-03-26T21:23:59.407Z,100380.72
2023-03-26T21:26:25.774Z,100388.25
2023-03-26T21:28:52.298Z,100401.91
2023-03-26T21:31:18.825Z,100381.47
2023-03-26T21:33:45.436Z,100393.84
2023-03-26T21:36:12.019Z,100409.47
2023-03-26T21:38:38.740Z,100443.72
2023-03-26T21:41:05.245Z,100435.81
2023-03-26T21:43:32.171Z,100412.84
2023-03-26T21:45:58.637Z,100431.13
2023-03-26T21:48:25.009Z,100421.75
2023-03-26T21:50:51.390Z,100435.66
2023-03-26T21:53:18.023Z,100441.72
2023-03-26T21:55:44.551Z,100455.84
2023-03-26T21:58:12.475Z,100450.06
2023-03-26T22:00:43.433Z,100437.97
2023-03-26T22:03:10.395Z,100462.03
2023-03-26T22:05:36.811Z,100458.03
2023-03-26T22:08:03.481Z,100463.25
2023-03-26T22:10:29.840Z,100462.47
2023-03-26T22:12:56.247Z,100477.34
2023-03-26T22:15:22.571Z,100498.91
2023-03-26T22:17:55.542Z,100495.28
2023-03-26T22:20:24.222Z,100496.59
2023-03-26T22:23:02.376Z,100501.78
2023-03-26T22:25:29.026Z,100507.09
2023-03-26T22:27:55.576Z,100513.00
2023-03-26T22:30:25.473Z,100515.13
2023-03-26T22:32:51.922Z,100506.56
2023-03-26T22:35:18.697Z,100520.41
2023-03-26T22:37:45.108Z,100535.25
2023-03-26T22:40:13.507Z,100530.91
2023-03-26T22:42:40.720Z,100530.56
2023-03-26T22:45:09.579Z,100531.03
2023-03-26T22:47:36.012Z,100541.41
2023-03-26T22:50:03.142Z,100537.84
2023-03-26T22:52:29.510Z,100548.81
2023-03-26T22:54:57.041Z,100547.53
2023-03-26T22:57:23.401Z,100549.38
2023-03-26T22:59:49.769Z,100565.63
2023-03-26T23:02:16.601Z,100566.47
2023-03-26T23:04:43.090Z,100570.47
2023-03-26T23:07:09.406Z,100578.19
2023-03-26T23:09:36.620Z,100577.41
2023-03-26T23:12:03.453Z,100586.06
2023-03-26T23:14:32.510Z,100596.09
2023-03-26T23:17:02.490Z,100592.31
2023-03-26T23:19:30.675Z,100601.28
2023-03-26T23:21:57.370Z,100605.53
2023-03-26T23:24:26.312Z,100608.50
2023-03-26T23:26:53.250Z,100613.84
2023-03-26T23:29:23.440Z,100607.72
2023-03-26T23:31:52.882Z,100625.94
2023-03-26T23:34:20.959Z,100626.84
2023-03-26T23:36:47.301Z,100638.28
2023-03-26T23:39:13.680Z,100651.72
2023-03-26T23:41:40.172Z,100651.06
2023-03-26T23:44:06.959Z,100651.19
2023-03-26T23:46:33.342Z,100654.41
2023-03-26T23:49:02.477Z,100655.88
2023-03-26T23:51:30.656Z,100666.56
2023-03-26T23:53:59.009Z,100672.53
2023-03-26T23:56:27.522Z,100668.59
2023-03-26T23:58:53.943Z,100680.66
